Time;durP1;ratioP1;P1;durP2;ratioP2;P2;SDS_P1;SDS_P2;PMS_P1;PMS_P2;Temp;Humidity;BMP_temperature;BMP_pressure;BME280_temperature;BME280_humidity;BME280_pressure;Samples;Min_cycle;Max_cycle;Signal;HPM_P1;HPM_P2
2023/06/11 00:00:19;;;;;;;9.80;9.00;;;;;25.10;100480.00;;;;2060724;28;20606;-49
2023/06/11 00:01:19;;;;;;;11.10;9.90;;;;;25.10;100483.00;;;;2060459;28;20589;-50
2023/06/11 00:02:21;;;;;;;10.27;9.30;;;;;25.10;100477.00;;;;2062053;28;20215;-50
2023/06/11 00:03:22;;;;;;;10.00;9.20;;;;;25.10;100480.00;;;;2052177;28;20218;-51
2023/06/11 00:04:26;;;;;;;10.13;9.33;;;;;25.10;100483.00;;;;2061551;28;20478;-51
2023/06/11 00:05:27;;;;;;;10.00;9.10;;;;;25.10;100484.00;;;;2061901;28;20217;-51
2023/06/11 00:06:28;;;;;;;10.93;9.95;;;;;25.10;100482.00;;;;2060626;28;20485;-50
2023/06/11 00:07:28;;;;;;;9.73;8.93;;;;;25.10;100488.00;;;;2061574;28;20261;-49
2023/06/11 00:08:28;;;;;;;10.20;9.40;;;;;25.10;100484.00;;;;2058871;28;20210;-50
2023/06/11 00:09:29;;;;;;;9.97;9.10;;;;;25.10;100487.00;;;;2067024;28;20302;-50
2023/06/11 00:10:29;;;;;;;9.90;9.10;;;;;25.00;100481.00;;;;2063716;28;20203;-49
2023/06/11 00:11:30;;;;;;;10.60;9.80;;;;;25.00;100477.00;;;;2064031;28;20707;-49
2023/06/11 00:12:32;;;;;;;8.90;8.20;;;;;25.10;100484.00;;;;2069039;28;20290;-50
2023/06/11 00:13:32;;;;;;;11.43;9.32;;;;;25.00;100477.00;;;;2058284;28;20214;-50
2023/06/11 00:14:33;;;;;;;10.30;9.40;;;;;25.10;100509.00;;;;2071134;28;20293;-50
2023/06/11 00:15:33;;;;;;;10.73;9.73;;;;;25.10;100501.00;;;;2069582;28;20690;-50
2023/06/11 00:16:34;;;;;;;10.00;9.20;;;;;25.10;100481.00;;;;2063460;28;20580;-49
2023/06/11 00:17:34;;;;;;;9.80;8.50;;;;;25.00;100474.00;;;;2066864;28;20583;-51
2023/06/11 00:18:35;;;;;;;9.47;8.67;;;;;25.00;100478.00;;;;2060363;28;20532;-50
2023/06/11 00:19:35;;;;;;;10.10;9.30;;;;;25.00;100478.00;;;;2066651;28;20210;-50
2023/06/11 00:20:40;;;;;;;9.53;8.73;;;;;25.00;100475.00;;;;2065652;28;20207;-49
2023/06/11 00:21:44;;;;;;;11.07;10.17;;;;;25.10;100480.00;;;;2063742;28;20210;-50
2023/06/11 00:22:45;;;;;;;9.90;9.10;;;;;25.00;100481.00;;;;2057094;28;20453;-50
2023/06/11 00:23:45;;;;;;;10.20;9.40;;;;;25.00;100482.00;;;;2065069;28;20541;-50
2023/06/11 00:24:46;;;;;;;11.27;10.37;;;;;25.00;100480.00;;;;2065427;28;20226;-49
2023/06/11 00:25:46;;;;;;;11.07;10.17;;;;;25.00;100475.00;;;;2062690;28;20223;-49
2023/06/11 00:26:46;;;;;;;10.87;9.80;;;;;25.00;100474.00;;;;2065075;28;20870;-49
2023/06/11 00:27:47;;;;;;;10.27;9.43;;;;;25.00;100476.00;;;;2054170;28;20599;-49
2023/06/11 00:28:47;;;;;;;10.37;9.47;;;;;25.00;100476.00;;;;2071661;28;20921;-49
2023/06/11 00:29:47;;;;;;;10.13;9.23;;;;;25.00;100470.00;;;;2069656;28;20613;-50
2023/06/11 00:30:48;;;;;;;9.43;8.73;;;;;25.10;100471.00;;;;2055937;28;20289;-49
2023/06/11 00:31:48;;;;;;;10.43;9.47;;;;;25.10;100467.00;;;;2053656;28;20239;-49
2023/06/11 00:32:48;;;;;;;9.80;9.03;;;;;25.00;100475.00;;;;2050856;28;20242;-50
2023/06/11 00:33:49;;;;;;;9.20;8.50;;;;;25.00;100485.00;;;;2061976;28;20249;-50
2023/06/11 00:34:49;;;;;;;9.87;9.10;;;;;25.00;100476.00;;;;2061351;28;20246;-50
2023/06/11 00:35:49;;;;;;;10.23;9.23;;;;;25.00;100478.00;;;;2061709;28;21161;-50
2023/06/11 00:36:50;;;;;;;9.90;9.10;;;;;25.00;100477.00;;;;2060552;28;20226;-49
2023/06/11 00:37:51;;;;;;;10.20;9.33;;;;;25.00;100487.00;;;;2049897;28;20301;-50
2023/06/11 00:38:51;;;;;;;10.10;9.30;;;;;25.00;100473.00;;;;2061443;28;20237;-50
2023/06/11 00:39:51;;;;;;;11.33;10.40;;;;;25.00;100478.00;;;;2060575;28;20564;-54
2023/06/11 00:40:52;;;;;;;10.40;9.60;;;;;25.00;100476.00;;;;2056204;28;20231;-53
2023/06/11 00:41:53;;;;;;;10.43;9.63;;;;;25.00;100472.00;;;;2056254;28;20305;-50
2023/06/11 00:42:54;;;;;;;10.27;9.30;;;;;25.00;100478.00;;;;2055749;28;20226;-50
2023/06/11 00:43:54;;;;;;;11.23;10.23;;;;;25.00;100473.00;;;;2076318;28;20464;-50
2023/06/11 00:44:55;;;;;;;10.20;9.20;;;;;25.00;100467.00;;;;2063303;28;20490;-50
2023/06/11 00:45:56;;;;;;;10.83;9.87;;;;;25.00;100470.00;;;;2061649;28;20230;-49
2023/06/11 00:46:57;;;;;;;9.35;8.65;;;;;25.00;100467.00;;;;2059892;28;20338;-50
2023/06/11 00:47:57;;;;;;;10.23;9.43;;;;;25.00;100476.00;;;;2047180;28;20232;-50
2023/06/11 00:48:58;;;;;;;10.10;9.30;;;;;25.00;100469.00;;;;2055986;28;20215;-50
2023/06/11 00:49:59;;;;;;;10.20;9.40;;;;;25.00;100450.00;;;;2058440;28;20323;-50
2023/06/11 00:51:00;;;;;;;9.55;8.77;;;;;25.00;100466.00;;;;2054659;28;20516;-50
2023/06/11 00:52:00;;;;;;;10.43;9.40;;;;;25.00;100459.00;;;;2058166;28;20632;-50
2023/06/11 00:53:01;;;;;;;10.03;9.10;;;;;25.00;100464.00;;;;2047695;28;20336;-50
2023/06/11 00:54:01;;;;;;;9.90;9.10;;;;;25.00;100466.00;;;;2061587;28;20884;-50
2023/06/11 00:55:02;;;;;;;9.73;8.97;;;;;25.00;100474.00;;;;2063423;28;20237;-49
2023/06/11 00:56:03;;;;;;;10.37;9.40;;;;;25.00;100471.00;;;;2065860;28;20222;-49
2023/06/11 00:57:06;;;;;;;9.70;8.90;;;;;25.00;100463.00;;;;2066841;28;20453;-50
2023/06/11 00:58:13;;;;;;;10.30;9.50;;;;;24.80;100467.00;;;;2056647;28;20766;-50
2023/06/11 00:59:17;;;;;;;10.53;9.60;;;;;25.00;100461.00;;;;2061937;28;20233;-49
2023/06/11 01:00:17;;;;;;;10.07;9.20;;;;;25.00;100475.00;;;;2061824;28;20858;-50
2023/06/11 01:01:25;;;;;;;9.93;8.93;;;;;25.00;100471.00;;;;2064462;28;20225;-50
2023/06/11 01:02:31;;;;;;;9.20;8.40;;;;;25.00;100466.00;;;;2068706;28;20237;-50
2023/06/11 01:03:33;;;;;;;9.55;8.75;;;;;25.00;100462.00;;;;2044335;28;20259;-50
2023/06/11 01:04:35;;;;;;;10.33;9.43;;;;;25.00;100473.00;;;;2063077;28;20215;-50
2023/06/11 01:05:43;;;;;;;10.17;9.37;;;;;25.00;100461.00;;;;2069783;28;20449;-50
2023/06/11 01:06:49;;;;;;;10.47;9.67;;;;;25.00;100463.00;;;;2055267;28;20457;-50
2023/06/11 01:07:55;;;;;;;10.40;9.53;;;;;25.00;100459.00;;;;2047009;28;20483;-50
2023/06/11 01:08:57;;;;;;;10.23;9.23;;;;;25.00;100464.00;;;;2054645;28;20979;-50
2023/06/11 01:09:57;;;;;;;10.53;9.63;;;;;25.00;100467.00;;;;2064124;28;20491;-50
2023/06/11 01:11:01;;;;;;;10.60;9.50;;;;;25.00;100473.00;;;;2062059;28;20451;-51
2023/06/11 01:12:02;;;;;;;10.60;9.52;;;;;25.00;100476.00;;;;2066862;28;20210;-50
2023/06/11 01:13:03;;;;;;;9.90;9.20;;;;;24.90;100413.00;;;;2054062;28;20266;-49
2023/06/11 01:14:04;;;;;;;9.60;8.90;;;;;25.00;100464.00;;;;2066961;28;20580;-50
2023/06/11 01:15:04;;;;;;;10.13;9.33;;;;;25.00;100472.00;;;;2066036;28;20229;-50
2023/06/11 01:16:15;;;;;;;10.80;9.90;;;;;25.00;100478.00;;;;2063957;28;20453;-50
2023/06/11 01:17:50;;;;;;;10.23;9.40;;;;;25.00;100467.00;;;;2069256;28;20273;-50
2023/06/11 01:19:03;;;;;;;10.57;9.68;;;;;25.00;100473.00;;;;2043748;28;20824;-50
2023/06/11 01:20:13;;;;;;;10.47;9.47;;;;;25.00;100467.00;;;;2054617;28;20214;-49
2023/06/11 01:21:17;;;;;;;9.17;8.47;;;;;25.00;100471.00;;;;2058438;28;21450;-49
2023/06/11 01:22:30;;;;;;;10.27;9.37;;;;;25.00;100464.00;;;;2052673;28;20606;-50
2023/06/11 01:23:42;;;;;;;8.98;8.30;;;;;25.00;100463.00;;;;2046474;28;20510;-50
2023/06/11 01:25:17;;;;;;;11.02;10.02;;;;;25.00;100470.00;;;;2054520;28;20298;-49
2023/06/11 01:26:42;;;;;;;10.68;9.80;;;;;25.00;100476.00;;;;2049110;28;20227;-49
2023/06/11 01:28:07;;;;;;;9.87;9.07;;;;;25.00;100483.00;;;;2053168;28;20309;-49
2023/06/11 01:29:08;;;;;;;10.15;9.32;;;;;25.00;100473.00;;;;2064795;28;20458;-50
2023/06/11 01:30:17;;;;;;;9.50;8.77;;;;;25.00;100477.00;;;;2066849;28;20234;-49
2023/06/11 01:31:17;;;;;;;10.00;9.20;;;;;25.00;100478.00;;;;2067780;28;20719;-50
2023/06/11 01:32:20;;;;;;;11.20;10.10;;;;;24.80;100478.00;;;;2061936;28;20497;-50
2023/06/11 01:33:24;;;;;;;10.43;9.52;;;;;24.90;100470.00;;;;2042878;28;20223;-49
2023/06/11 01:34:25;;;;;;;10.85;9.95;;;;;25.00;100480.00;;;;2061249;28;20695;-50
2023/06/11 01:35:27;;;;;;;11.30;10.40;;;;;24.90;100477.00;;;;2067623;28;20206;-50
2023/06/11 01:36:29;;;;;;;10.63;9.67;;;;;24.90;100475.00;;;;2067191;28;21050;-50
2023/06/11 01:37:32;;;;;;;10.67;9.87;;;;;24.90;100474.00;;;;2063143;28;20457;-50
2023/06/11 01:38:41;;;;;;;9.83;8.97;;;;;24.90;100472.00;;;;2051145;28;20477;-50
2023/06/11 01:39:45;;;;;;;10.40;9.30;;;;;24.90;100475.00;;;;2058152;28;20455;-50
2023/06/11 01:40:45;;;;;;;10.20;9.40;;;;;25.00;100471.00;;;;2054768;28;20502;-50
2023/06/11 01:41:46;;;;;;;9.83;9.03;;;;;25.00;100475.00;;;;2058016;28;20477;-50
2023/06/11 01:42:46;;;;;;;10.97;10.00;;;;;24.90;100475.00;;;;2050974;28;20326;-50
2023/06/11 01:43:46;;;;;;;10.13;9.20;;;;;24.90;100474.00;;;;2060613;28;20233;-50
2023/06/11 01:44:47;;;;;;;9.27;8.47;;;;;24.90;100475.00;;;;2061083;28;20289;-48
2023/06/11 01:45:47;;;;;;;10.30;9.50;;;;;24.90;100473.00;;;;2057417;28;20223;-50
2023/06/11 01:46:47;;;;;;;10.57;9.80;;;;;24.90;100476.00;;;;2059446;28;20227;-50
2023/06/11 01:47:49;;;;;;;10.03;9.03;;;;;24.90;100474.00;;;;2051731;28;20222;-50
2023/06/11 01:48:49;;;;;;;9.87;8.93;;;;;24.90;100471.00;;;;2060301;28;20215;-50
2023/06/11 01:49:51;;;;;;;10.13;9.23;;;;;24.90;100466.00;;;;2058483;28;20590;-50
2023/06/11 01:50:51;;;;;;;10.05;9.25;;;;;24.90;100471.00;;;;2059463;28;20226;-49
2023/06/11 01:51:51;;;;;;;10.30;9.40;;;;;24.90;100465.00;;;;2056716;28;20223;-49
2023/06/11 01:52:52;;;;;;;10.37;9.57;;;;;24.90;100465.00;;;;2044817;28;20324;-50
2023/06/11 01:53:54;;;;;;;9.37;8.57;;;;;24.90;100469.00;;;;2059738;28;20242;-50
2023/06/11 01:54:55;;;;;;;9.80;9.10;;;;;24.90;100468.00;;;;2059318;28;20281;-50
2023/06/11 01:55:56;;;;;;;10.40;9.60;;;;;24.90;100468.00;;;;2060771;28;20478;-50
2023/06/11 01:56:56;;;;;;;10.37;9.43;;;;;24.90;100472.00;;;;2065987;28;20453;-50
2023/06/11 01:57:57;;;;;;;10.17;9.37;;;;;24.90;100469.00;;;;2053886;28;20353;-50
2023/06/11 01:58:57;;;;;;;10.10;9.30;;;;;24.90;100476.00;;;;2066354;28;20263;-49
2023/06/11 01:59:58;;;;;;;9.70;9.00;;;;;24.90;100470.00;;;;2063493;28;20642;-52
2023/06/11 02:00:59;;;;;;;9.57;8.83;;;;;24.90;100476.00;;;;2055445;28;20255;-51
2023/06/11 02:02:00;;;;;;;9.70;8.80;;;;;24.90;100480.00;;;;2065871;28;20580;-50
2023/06/11 02:03:01;;;;;;;10.03;9.23;;;;;24.90;100481.00;;;;2052901;28;20462;-50
2023/06/11 02:04:02;;;;;;;9.93;9.13;;;;;24.90;100476.00;;;;2066633;28;20373;-49
2023/06/11 02:05:03;;;;;;;10.00;9.00;;;;;24.90;100476.00;;;;2061675;28;20505;-50
2023/06/11 02:06:03;;;;;;;9.47;8.77;;;;;24.90;100484.00;;;;2065103;28;20608;-50
2023/06/11 02:07:03;;;;;;;9.93;8.70;;;;;24.90;100478.00;;;;2062350;28;20313;-50
2023/06/11 02:08:04;;;;;;;10.10;9.30;;;;;24.90;100476.00;;;;2051096;28;20223;-49
2023/06/11 02:09:04;;;;;;;9.93;9.13;;;;;24.90;100470.00;;;;2060876;28;20294;-50
2023/06/11 02:10:05;;;;;;;9.40;8.60;;;;;24.90;100467.00;;;;2065883;28;20210;-50
2023/06/11 02:11:05;;;;;;;9.70;8.80;;;;;24.90;100470.00;;;;2061720;28;20266;-49
2023/06/11 02:12:06;;;;;;;9.63;8.87;;;;;24.90;100479.00;;;;2059539;28;20214;-50
2023/06/11 02:13:07;;;;;;;9.07;8.33;;;;;24.90;100472.00;;;;2050508;28;20330;-50
2023/06/11 02:14:07;;;;;;;8.63;7.93;;;;;24.90;100468.00;;;;2059614;28;20876;-49
2023/06/11 02:15:08;;;;;;;9.73;8.87;;;;;24.90;100473.00;;;;2037299;28;20999;-49
2023/06/11 02:16:08;;;;;;;9.63;8.83;;;;;24.90;100480.00;;;;2042193;28;20204;-50
2023/06/11 02:17:09;;;;;;;9.83;9.13;;;;;24.90;100476.00;;;;2059889;28;20229;-50
2023/06/11 02:18:10;;;;;;;9.67;8.77;;;;;24.90;100486.00;;;;2051229;28;20257;-50
2023/06/11 02:19:10;;;;;;;9.00;8.30;;;;;24.90;100479.00;;;;2058765;28;20462;-50
2023/06/11 02:20:12;;;;;;;9.43;8.50;;;;;24.90;100489.00;;;;2060808;28;20214;-50
2023/06/11 02:21:12;;;;;;;9.80;9.10;;;;;24.90;100484.00;;;;2058038;28;20207;-50
2023/06/11 02:22:12;;;;;;;9.53;8.70;;;;;24.90;100485.00;;;;2066839;28;20490;-50
2023/06/11 02:23:13;;;;;;;9.77;9.07;;;;;24.90;100488.00;;;;2058356;28;20218;-50
2023/06/11 02:24:13;;;;;;;8.70;8.00;;;;;24.80;100491.00;;;;2060520;28;20227;-50
2023/06/11 02:25:13;;;;;;;10.17;9.27;;;;;24.90;100490.00;;;;2053624;28;20219;-49
2023/06/11 02:26:14;;;;;;;10.43;9.63;;;;;24.90;100490.00;;;;2060674;28;20703;-50
2023/06/11 02:27:14;;;;;;;10.20;9.40;;;;;24.90;100498.00;;;;2065659;28;20336;-50
2023/06/11 02:28:15;;;;;;;9.77;9.07;;;;;24.90;100493.00;;;;2044643;28;20216;-49
2023/06/11 02:29:15;;;;;;;9.90;8.93;;;;;24.90;100494.00;;;;2058854;28;20214;-49
2023/06/11 02:30:16;;;;;;;10.07;9.27;;;;;24.90;100490.00;;;;2060851;28;20222;-50
2023/06/11 02:31:16;;;;;;;9.43;8.73;;;;;24.90;100501.00;;;;2058485;28;20215;-50
2023/06/11 02:32:16;;;;;;;10.37;9.57;;;;;24.90;100497.00;;;;2060762;28;20687;-50
2023/06/11 02:33:17;;;;;;;9.13;8.43;;;;;24.90;100497.00;;;;2047865;28;20310;-49
2023/06/11 02:34:17;;;;;;;9.43;8.63;;;;;24.90;100493.00;;;;2060091;28;20277;-50
2023/06/11 02:35:17;;;;;;;9.87;9.00;;;;;24.90;100489.00;;;;2054131;28;20220;-49
2023/06/11 02:36:18;;;;;;;10.47;9.60;;;;;24.90;100491.00;;;;2052799;28;20299;-49
2023/06/11 02:37:18;;;;;;;10.07;9.27;;;;;24.90;100487.00;;;;2057639;28;20210;-49
2023/06/11 02:38:18;;;;;;;12.07;9.40;;;;;24.90;100483.00;;;;2050483;28;20334;-50
2023/06/11 02:39:19;;;;;;;9.97;9.13;;;;;24.90;100490.00;;;;2052602;28;20215;-49
2023/06/11 02:40:20;;;;;;;10.97;10.03;;;;;24.90;100491.00;;;;2056556;28;20270;-50
2023/06/11 02:41:20;;;;;;;10.27;9.48;;;;;24.90;100488.00;;;;2067998;28;20224;-50
2023/06/11 02:42:20;;;;;;;9.50;8.77;;;;;24.90;100498.00;;;;2061493;28;20781;-50
2023/06/11 02:43:21;;;;;;;9.70;8.90;;;;;24.90;100489.00;;;;2057959;28;20656;-50
2023/06/11 02:44:21;;;;;;;9.80;9.00;;;;;24.80;100491.00;;;;2069004;28;20556;-50
2023/06/11 02:45:21;;;;;;;10.30;9.43;;;;;24.80;100485.00;;;;2060857;28;20314;-50
2023/06/11 02:46:22;;;;;;;9.73;9.03;;;;;24.80;100491.00;;;;2068682;28;20301;-50
2023/06/11 02:47:22;;;;;;;9.80;9.00;;;;;24.80;100486.00;;;;2060680;28;20285;-49
2023/06/11 02:48:22;;;;;;;11.20;10.20;;;;;24.80;100487.00;;;;2056407;28;20718;-49
2023/06/11 02:49:23;;;;;;;10.20;9.33;;;;;24.90;100489.00;;;;2066129;28;20315;-50
2023/06/11 02:50:23;;;;;;;10.37;9.47;;;;;24.80;100489.00;;;;2062207;28;20266;-55
2023/06/11 02:51:23;;;;;;;9.63;8.93;;;;;24.80;100486.00;;;;2067161;28;20293;-53
2023/06/11 02:52:24;;;;;;;10.20;9.30;;;;;24.80;100496.00;;;;2060643;28;20207;-50
2023/06/11 02:53:24;;;;;;;10.10;9.10;;;;;24.80;100486.00;;;;2055106;28;20214;-50
2023/06/11 02:54:25;;;;;;;10.50;9.60;;;;;24.80;100484.00;;;;2061752;28;20234;-50
2023/06/11 02:55:25;;;;;;;10.50;9.60;;;;;24.80;100487.00;;;;2061905;28;20214;-50
2023/06/11 02:56:26;;;;;;;9.37;8.60;;;;;24.80;100481.00;;;;2065951;28;20215;-50
2023/06/11 02:57:26;;;;;;;9.43;8.73;;;;;24.80;100484.00;;;;2068053;28;20206;-50
2023/06/11 02:58:27;;;;;;;10.10;9.20;;;;;24.80;100437.00;;;;2050319;28;20450;-50
2023/06/11 02:59:27;;;;;;;9.60;8.70;;;;;24.80;100487.00;;;;2058712;28;20235;-50
2023/06/11 03:00:27;;;;;;;9.73;9.00;;;;;24.80;100489.00;;;;2052712;28;20498;-50
2023/06/11 03:01:28;;;;;;;10.07;9.27;;;;;24.80;100492.00;;;;2054631;28;20203;-50
2023/06/11 03:02:28;;;;;;;9.33;8.60;;;;;24.80;100499.00;;;;2052474;28;20211;-50
2023/06/11 03:03:28;;;;;;;10.60;9.70;;;;;24.80;100492.00;;;;2049302;28;20238;-50
2023/06/11 03:04:29;;;;;;;9.70;8.90;;;;;24.80;100486.00;;;;2061557;28;20203;-50
2023/06/11 03:05:29;;;;;;;9.67;8.97;;;;;24.80;100488.00;;;;2060754;28;20203;-50
2023/06/11 03:06:29;;;;;;;12.37;9.50;;;;;24.70;100491.00;;;;2060687;28;20210;-49
2023/06/11 03:07:30;;;;;;;10.10;9.30;;;;;24.80;100486.00;;;;2068656;28;20344;-50
2023/06/11 03:08:30;;;;;;;10.60;9.60;;;;;24.80;100494.00;;;;2051406;28;20242;-50
2023/06/11 03:09:30;;;;;;;9.93;9.13;;;;;24.80;100491.00;;;;2064007;28;20207;-50
2023/06/11 03:10:31;;;;;;;9.70;8.80;;;;;24.80;100498.00;;;;2054227;28;20216;-50
2023/06/11 03:11:31;;;;;;;9.17;8.37;;;;;24.80;100495.00;;;;2059640;28;20304;-49
2023/06/11 03:12:31;;;;;;;10.90;9.80;;;;;24.80;100499.00;;;;2059338;28;20215;-50
2023/06/11 03:13:32;;;;;;;10.07;9.27;;;;;24.80;100491.00;;;;2046637;28;20321;-50
2023/06/11 03:14:32;;;;;;;9.97;9.27;;;;;24.80;100494.00;;;;2055113;28;20219;-49
2023/06/11 03:15:33;;;;;;;9.57;8.77;;;;;24.80;100493.00;;;;2058085;28;20214;-49
2023/06/11 03:16:33;;;;;;;9.87;9.10;;;;;24.80;100487.00;;;;2055854;28;20223;-50
2023/06/11 03:17:33;;;;;;;10.07;9.13;;;;;24.90;100498.00;;;;2064866;28;20211;-49
2023/06/11 03:18:34;;;;;;;9.27;8.50;;;;;24.80;100498.00;;;;2052569;28;20222;-49
2023/06/11 03:19:34;;;;;;;9.13;8.40;;;;;24.40;100493.00;;;;2063893;28;20207;-49
2023/06/11 03:20:34;;;;;;;9.60;8.50;;;;;24.10;100502.00;;;;2060568;28;20203;-50
2023/06/11 03:21:35;;;;;;;9.50;8.70;;;;;23.80;100500.00;;;;2060845;28;20207;-50
2023/06/11 03:22:35;;;;;;;9.60;8.60;;;;;23.50;100491.00;;;;2062312;28;20576;-53
2023/06/11 03:23:35;;;;;;;9.73;8.90;;;;;23.40;100498.00;;;;2061421;28;20508;-50
2023/06/11 03:24:36;;;;;;;9.43;7.60;;;;;23.30;100506.00;;;;2060695;28;20210;-49
2023/06/11 03:25:36;;;;;;;11.53;9.10;;;;;23.20;100506.00;;;;2062173;28;20215;-49
2023/06/11 03:26:36;;;;;;;8.50;7.80;;;;;23.20;100502.00;;;;2068552;28;20211;-50
2023/06/11 03:27:37;;;;;;;8.67;7.97;;;;;23.30;100506.00;;;;2054813;28;20207;-50
2023/06/11 03:28:37;;;;;;;9.47;8.67;;;;;23.40;100497.00;;;;2065793;28;20230;-49
2023/06/11 03:29:38;;;;;;;8.70;8.00;;;;;23.40;100502.00;;;;2059210;28;20291;-50
2023/06/11 03:30:38;;;;;;;9.50;8.60;;;;;23.30;100495.00;;;;2067548;28;20227;-49
2023/06/11 03:31:40;;;;;;;8.93;8.17;;;;;23.10;100499.00;;;;2066564;28;20589;-49
2023/06/11 03:32:40;;;;;;;9.27;8.48;;;;;23.10;100502.00;;;;2057876;28;20209;-50
2023/06/11 03:33:40;;;;;;;9.23;8.33;;;;;23.00;100492.00;;;;2067083;28;20214;-50
2023/06/11 03:34:42;;;;;;;9.27;8.47;;;;;22.90;100490.00;;;;2064276;28;20690;-50
2023/06/11 03:35:43;;;;;;;9.60;8.50;;;;;22.90;100490.00;;;;2064756;28;20746;-49
2023/06/11 03:36:43;;;;;;;8.73;8.03;;;;;22.70;100490.00;;;;2061185;28;22900;-49
2023/06/11 03:37:43;;;;;;;9.73;8.87;;;;;23.20;100493.00;;;;2055486;28;20236;-49
2023/06/11 03:38:44;;;;;;;9.10;8.40;;;;;23.50;100490.00;;;;2067395;28;20236;-50
2023/06/11 03:39:44;;;;;;;9.57;8.77;;;;;23.70;100494.00;;;;2065037;28;20222;-50
2023/06/11 03:40:44;;;;;;;8.07;7.47;;;;;23.80;100497.00;;;;2061760;28;20219;-50
2023/06/11 03:41:45;;;;;;;9.97;9.07;;;;;23.90;100487.00;;;;2061612;28;20277;-50
2023/06/11 03:42:45;;;;;;;8.60;7.90;;;;;24.00;100498.00;;;;2054529;28;20222;-50
2023/06/11 03:43:45;;;;;;;9.60;8.70;;;;;23.90;100492.00;;;;2055946;28;20216;-49
2023/06/11 03:44:46;;;;;;;10.17;9.27;;;;;24.00;100493.00;;;;2063039;28;20218;-50
2023/06/11 03:45:46;;;;;;;8.97;8.27;;;;;24.00;100486.00;;;;2061354;28;20297;-50
2023/06/11 03:46:47;;;;;;;9.67;8.77;;;;;24.00;100494.00;;;;2061281;28;20301;-50
2023/06/11 03:47:52;;;;;;;10.60;9.60;;;;;24.10;100490.00;;;;2052511;28;20539;-50
2023/06/11 03:48:52;;;;;;;9.68;8.65;;;;;24.20;100486.00;;;;2057595;28;20960;-49
2023/06/11 03:49:52;;;;;;;9.93;9.13;;;;;24.20;100493.00;;;;2057830;28;20235;-50
2023/06/11 03:50:52;;;;;;;9.93;8.73;;;;;24.20;100487.00;;;;2060808;28;20238;-50
2023/06/11 03:51:53;;;;;;;9.57;8.73;;;;;24.30;100496.00;;;;2061887;28;20281;-50
2023/06/11 03:52:53;;;;;;;15.63;9.27;;;;;24.30;100485.00;;;;2050519;28;20366;-50
2023/06/11 03:53:54;;;;;;;10.93;9.83;;;;;24.30;100494.00;;;;2061139;28;20313;-49
2023/06/11 03:54:54;;;;;;;13.03;10.80;;;;;24.30;100494.00;;;;2060433;28;20249;-50
2023/06/11 03:55:54;;;;;;;16.53;14.83;;;;;24.40;100483.00;;;;2060761;28;20294;-50
2023/06/11 03:56:54;;;;;;;24.87;19.37;;;;;24.30;100493.00;;;;2061961;28;20281;-51
2023/06/11 03:57:55;;;;;;;36.50;28.70;;;;;24.30;100491.00;;;;2051829;28;20242;-50
2023/06/11 03:58:55;;;;;;;40.30;34.57;;;;;24.30;100484.00;;;;2057537;28;20277;-50
2023/06/11 03:59:56;;;;;;;44.40;37.50;;;;;24.40;100484.00;;;;2057664;28;20329;-50
2023/06/11 04:00:56;;;;;;;49.03;40.53;;;;;24.40;100493.00;;;;2061266;28;20222;-50
2023/06/11 04:01:56;;;;;;;48.83;42.77;;;;;24.40;100497.00;;;;2066915;28;20233;-50
2023/06/11 04:02:57;;;;;;;49.60;41.27;;;;;24.40;100487.00;;;;2054348;28;20302;-49
2023/06/11 04:03:57;;;;;;;50.70;39.27;;;;;24.40;100499.00;;;;2066990;28;20214;-50
2023/06/11 04:04:58;;;;;;;44.30;35.90;;;;;24.50;100496.00;;;;2065365;28;20223;-50
2023/06/11 04:05:58;;;;;;;48.03;38.37;;;;;24.50;100495.00;;;;2066695;28;20242;-50
2023/06/11 04:06:59;;;;;;;44.70;36.60;;;;;24.60;100484.00;;;;2063985;28;20226;-50
2023/06/11 04:07:59;;;;;;;42.57;35.50;;;;;24.60;100487.00;;;;2050705;28;20234;-49
2023/06/11 04:08:59;;;;;;;40.60;35.40;;;;;24.60;100490.00;;;;2067164;28;20868;-49
2023/06/11 04:10:00;;;;;;;44.43;35.40;;;;;24.60;100499.00;;;;2066098;28;20578;-50
2023/06/11 04:11:00;;;;;;;38.60;33.83;;;;;24.60;100506.00;;;;2066880;28;20220;-50
2023/06/11 04:12:00;;;;;;;40.97;33.83;;;;;24.50;100501.00;;;;2063277;28;20268;-50
2023/06/11 04:13:01;;;;;;;40.87;31.80;;;;;24.60;100505.00;;;;2052125;28;20249;-50
2023/06/11 04:14:01;;;;;;;35.43;30.03;;;;;24.60;100498.00;;;;2065311;28;20218;-49
2023/06/11 04:15:02;;;;;;;39.47;30.60;;;;;24.60;100502.00;;;;2066098;28;20273;-50
2023/06/11 04:16:02;;;;;;;38.37;29.33;;;;;24.60;100498.00;;;;2066526;28;20264;-50
2023/06/11 04:17:03;;;;;;;34.40;28.33;;;;;24.60;100503.00;;;;2061745;28;20229;-50
2023/06/11 04:18:03;;;;;;;31.17;26.43;;;;;24.60;100496.00;;;;2057640;28;21230;-50
2023/06/11 04:19:03;;;;;;;35.23;28.13;;;;;24.60;100502.00;;;;2066085;28;20238;-49
2023/06/11 04:20:05;;;;;;;31.20;24.80;;;;;24.60;100500.00;;;;2067488;28;20218;-50
2023/06/11 04:21:06;;;;;;;31.90;25.90;;;;;24.60;100502.00;;;;2064265;28;20293;-48
2023/06/11 04:22:06;;;;;;;29.70;26.50;;;;;24.60;100505.00;;;;2066012;28;20233;-49
2023/06/11 04:23:06;;;;;;;28.43;24.30;;;;;24.60;100501.00;;;;2056861;28;20225;-50
2023/06/11 04:24:07;;;;;;;29.20;24.83;;;;;24.60;100504.00;;;;2063821;28;20218;-50
2023/06/11 04:25:07;;;;;;;30.37;24.60;;;;;24.60;100505.00;;;;2067280;28;20249;-50
2023/06/11 04:26:08;;;;;;;29.17;26.07;;;;;24.60;100501.00;;;;2064991;28;20294;-50
2023/06/11 04:27:11;;;;;;;26.63;23.50;;;;;24.60;100503.00;;;;2065794;28;20214;-50
2023/06/11 04:28:16;;;;;;;27.13;23.52;;;;;24.60;100503.00;;;;2045391;28;20250;-49
2023/06/11 04:29:18;;;;;;;27.02;22.70;;;;;24.60;100509.00;;;;2059106;28;20681;-50
2023/06/11 04:30:20;;;;;;;27.15;23.30;;;;;24.60;100502.00;;;;2058839;28;20235;-50
2023/06/11 04:31:20;;;;;;;23.95;21.35;;;;;24.60;100500.00;;;;2060631;28;20768;-50
2023/06/11 04:32:26;;;;;;;24.60;21.77;;;;;24.60;100496.00;;;;2056974;28;20314;-49
2023/06/11 04:33:32;;;;;;;24.65;22.05;;;;;24.60;100499.00;;;;2045686;28;20235;-49
2023/06/11 04:34:33;;;;;;;22.52;19.95;;;;;24.60;100509.00;;;;2053813;28;20210;-49
2023/06/11 04:35:34;;;;;;;25.13;19.75;;;;;24.60;100498.00;;;;2060103;28;20218;-49
2023/06/11 04:36:34;;;;;;;22.93;20.73;;;;;24.60;100504.00;;;;2060703;28;20293;-49
2023/06/11 04:37:41;;;;;;;27.43;20.53;;;;;24.60;100501.00;;;;2060415;28;20294;-50
2023/06/11 04:38:44;;;;;;;22.05;19.73;;;;;24.60;100504.00;;;;2058390;28;20274;-49
2023/06/11 04:39:45;;;;;;;21.20;19.00;;;;;24.70;100506.00;;;;2060559;28;20261;-49
2023/06/11 04:40:45;;;;;;;21.07;18.87;;;;;24.60;100507.00;;;;2059205;28;20246;-49
2023/06/11 04:41:47;;;;;;;21.50;19.37;;;;;24.60;100504.00;;;;2061031;28;20203;-50
2023/06/11 04:42:48;;;;;;;21.55;19.35;;;;;24.40;100502.00;;;;2052160;28;21199;-50
2023/06/11 04:43:48;;;;;;;23.97;20.07;;;;;24.60;100501.00;;;;2068470;28;20301;-49
2023/06/11 04:44:49;;;;;;;23.97;19.50;;;;;24.60;100497.00;;;;2067151;28;20500;-49
2023/06/11 04:45:55;;;;;;;20.40;18.37;;;;;24.60;100504.00;;;;2061009;28;20230;-49
2023/06/11 04:46:57;;;;;;;22.07;19.70;;;;;24.60;100501.00;;;;2060846;28;20856;-50
2023/06/11 04:48:00;;;;;;;23.55;19.85;;;;;24.70;100503.00;;;;2050702;28;20734;-50
2023/06/11 04:49:00;;;;;;;20.35;18.23;;;;;24.70;100498.00;;;;2060670;28;20971;-50
2023/06/11 04:50:04;;;;;;;21.10;19.07;;;;;24.70;100496.00;;;;2059826;28;20326;-50
2023/06/11 04:51:04;;;;;;;19.25;17.40;;;;;24.50;100497.00;;;;2059614;28;20234;-49
2023/06/11 04:52:05;;;;;;;20.37;18.37;;;;;24.70;100506.00;;;;2056531;28;20258;-50
2023/06/11 04:53:05;;;;;;;20.40;18.27;;;;;24.70;100503.00;;;;2050899;28;20896;-49
2023/06/11 04:54:07;;;;;;;20.53;18.37;;;;;24.50;100502.00;;;;2062299;28;20215;-50
2023/06/11 04:55:09;;;;;;;20.30;18.20;;;;;24.70;100507.00;;;;2059894;28;20230;-49
2023/06/11 04:56:10;;;;;;;20.60;17.63;;;;;24.70;100470.00;;;;2054857;28;20239;-50
2023/06/11 04:57:13;;;;;;;19.90;17.70;;;;;24.70;100503.00;;;;2060611;28;20498;-50
2023/06/11 04:58:13;;;;;;;18.20;16.37;;;;;24.70;100508.00;;;;2051620;28;20254;-50
2023/06/11 04:59:13;;;;;;;20.67;18.53;;;;;24.70;100507.00;;;;2051070;28;20750;-49
2023/06/11 05:00:14;;;;;;;18.93;17.00;;;;;24.70;100501.00;;;;2059472;28;20461;-50
2023/06/11 05:01:15;;;;;;;19.37;17.40;;;;;24.70;100512.00;;;;2054678;28;20216;-49